Terminal Aerodrome Forecast
Issued by NWS Charleston, WV

Home | Current Version | Previous Version | Text Only | Print | Product List | Glossary On
Versions: 1 2 3 4 5 6 7 8 9 10 11 12 13 14 15 16 17 18 19 20 21 22 23 24 25 26 27 28 29 30
000
FTUS41 KRLX 171844 AAA
TAFCRW
TAF AMD
KCRW 171844Z 1719/1818 22010KT P6SM VCTS SCT035CB BKN070
     FM180400 VRB03KT 5SM -SHRA VCTS BKN025CB
     FM181000 22004KT P6SM OVC010
     FM181500 25005KT P6SM SCT035=

USA.gov is the U.S. government's official web portal to all federal, state and local government web resources and services.